createdAt,value
2022-12-26T00:00:00.725Z,4.2
2022-12-26T00:05:00.840Z,4.4
2022-12-26T00:10:00.613Z,4.7
2022-12-26T00:15:00.587Z,5.1
2022-12-26T00:20:00.626Z,4.5
2022-12-26T00:25:00.604Z,3.3
2022-12-26T00:30:00.673Z,3.5
2022-12-26T00:35:00.603Z,4.7
2022-12-26T00:40:00.605Z,3.5
2022-12-26T00:45:00.627Z,4.6
2022-12-26T00:50:12.031Z,3.4
2022-12-26T00:55:00.610Z,5.3
2022-12-26T01:00:00.795Z,4.1
2022-12-26T01:05:00.633Z,4.5
2022-12-26T01:10:00.627Z,5.2
2022-12-26T01:15:00.626Z,3.7
2022-12-26T01:20:00.661Z,2.7
2022-12-26T01:25:00.690Z,2.5
2022-12-26T01:30:00.639Z,4.1
2022-12-26T01:35:00.632Z,3.6
2022-12-26T01:40:00.644Z,5.4
2022-12-26T01:45:00.636Z,3.7
2022-12-26T01:50:00.643Z,4.1
2022-12-26T01:55:00.618Z,5.7
2022-12-26T02:00:00.642Z,5.7
2022-12-26T02:05:00.624Z,4.8
2022-12-26T02:10:00.617Z,3.9
2022-12-26T02:15:00.603Z,6.3
2022-12-26T02:20:00.637Z,4.6
2022-12-26T02:25:00.639Z,6.4
2022-12-26T02:30:00.637Z,6.0
2022-12-26T02:35:00.624Z,8.0
2022-12-26T02:40:00.619Z,7.5
2022-12-26T02:45:00.763Z,5.6
2022-12-26T02:50:00.650Z,7.6
2022-12-26T02:55:00.623Z,7.3
2022-12-26T03:00:00.645Z,6.3
2022-12-26T03:05:00.749Z,7.3
2022-12-26T03:10:00.632Z,7.6
2022-12-26T03:15:00.636Z,6.0
2022-12-26T03:20:00.671Z,6.4
2022-12-26T03:25:00.593Z,7.1
2022-12-26T03:30:00.643Z,7.1
2022-12-26T03:35:00.619Z,8.2
2022-12-26T03:40:00.682Z,7.3
2022-12-26T03:45:00.629Z,4.5
2022-12-26T03:50:00.680Z,6.0
2022-12-26T03:55:00.602Z,4.7
2022-12-26T04:00:00.828Z,5.5
2022-12-26T04:05:00.654Z,7.2
2022-12-26T04:10:00.643Z,4.3
2022-12-26T04:15:00.644Z,4.4
2022-12-26T04:20:00.625Z,6.2
2022-12-26T04:25:00.656Z,9.5
2022-12-26T04:30:00.738Z,8.0
2022-12-26T04:35:00.647Z,9.1
2022-12-26T04:40:00.627Z,10.1
2022-12-26T04:45:00.615Z,7.5
2022-12-26T04:50:00.639Z,7.5
2022-12-26T04:55:00.616Z,7.5
2022-12-26T05:00:00.616Z,7.3
2022-12-26T05:05:00.645Z,7.6
2022-12-26T05:10:00.633Z,9.3
2022-12-26T05:15:00.698Z,5.7
2022-12-26T05:20:00.643Z,6.9
2022-12-26T05:25:00.797Z,6.8
2022-12-26T05:30:00.653Z,6.4
2022-12-26T05:35:00.621Z,7.7
2022-12-26T05:40:00.626Z,7.6
2022-12-26T05:45:00.626Z,5.2
2022-12-26T05:50:00.659Z,5.9
2022-12-26T05:55:00.616Z,3.5
2022-12-26T06:00:00.623Z,5.6
2022-12-26T06:05:00.835Z,5.0
2022-12-26T06:10:00.647Z,5.4
2022-12-26T06:15:00.640Z,5.2
2022-12-26T06:20:00.643Z,6.0
2022-12-26T06:25:00.638Z,6.4
2022-12-26T06:30:00.642Z,6.6
2022-12-26T06:35:00.602Z,5.8
2022-12-26T06:40:00.660Z,6.9
2022-12-26T06:45:00.603Z,7.6
2022-12-26T06:50:00.679Z,7.7
2022-12-26T06:55:00.635Z,9.5
2022-12-26T07:00:00.650Z,9.4
2022-12-26T07:05:00.602Z,8.0
2022-12-26T07:10:00.643Z,8.3
2022-12-26T07:15:02.290Z,7.7
2022-12-26T07:20:00.647Z,7.1
2022-12-26T07:25:00.635Z,7.9
2022-12-26T07:30:00.667Z,8.0
2022-12-26T07:35:00.608Z,4.4
2022-12-26T07:40:00.649Z,3.4
2022-12-26T07:45:00.873Z,1.9
2022-12-26T07:50:00.620Z,4.5
2022-12-26T07:55:00.827Z,4.7
2022-12-26T08:00:01.136Z,5.1
2022-12-26T08:05:00.990Z,4.4
2022-12-26T08:10:01.107Z,2.8
2022-12-26T08:15:00.651Z,4.6
2022-12-26T08:20:00.692Z,5.0
2022-12-26T08:25:00.619Z,5.1
2022-12-26T08:30:01.009Z,7.0
2022-12-26T08:35:00.676Z,7.2
2022-12-26T08:40:01.099Z,4.5
2022-12-26T08:45:01.043Z,5.4
2022-12-26T08:50:00.986Z,2.9
2022-12-26T08:55:01.021Z,6.0
2022-12-26T09:00:00.641Z,5.1
2022-12-26T09:05:00.633Z,4.3
2022-12-26T09:10:00.653Z,4.8
2022-12-26T09:15:00.645Z,6.3
2022-12-26T09:20:01.036Z,6.3
2022-12-26T09:25:00.943Z,3.6
2022-12-26T09:30:01.060Z,4.4
2022-12-26T09:35:00.630Z,2.5
2022-12-26T09:40:00.880Z,3.0
2022-12-26T09:45:00.918Z,7.5
2022-12-26T09:50:00.858Z,7.6
2022-12-26T09:55:00.692Z,5.6
2022-12-26T10:00:00.630Z,5.2
2022-12-26T10:05:00.935Z,8.6
2022-12-26T10:10:00.658Z,8.5
2022-12-26T10:15:00.645Z,5.8
2022-12-26T10:20:01.105Z,7.0
2022-12-26T10:25:01.198Z,11.1
2022-12-26T10:30:00.694Z,6.9
2022-12-26T10:35:01.060Z,6.2
2022-12-26T10:40:00.941Z,5.6
2022-12-26T10:45:01.084Z,4.9
2022-12-26T10:50:01.010Z,5.0
2022-12-26T10:55:27.891Z,6.4
2022-12-26T11:00:00.988Z,4.5
2022-12-26T11:05:15.849Z,6.0
2022-12-26T11:10:00.637Z,7.4
2022-12-26T11:15:00.670Z,5.2
2022-12-26T11:20:01.103Z,6.7
2022-12-26T11:25:01.193Z,10.7
2022-12-26T11:30:01.259Z,8.1
2022-12-26T11:35:00.931Z,7.3
2022-12-26T11:40:00.726Z,5.5
2022-12-26T11:45:00.670Z,6.8
2022-12-26T11:50:00.769Z,7.1
2022-12-26T11:55:01.212Z,7.9
2022-12-26T12:00:00.809Z,6.5
2022-12-26T12:05:00.654Z,7.5
2022-12-26T12:10:00.674Z,5.8
2022-12-26T12:15:00.641Z,6.9
2022-12-26T12:20:00.971Z,4.5
2022-12-26T12:25:00.632Z,5.0
2022-12-26T12:30:00.667Z,6.8
2022-12-26T12:35:01.415Z,7.2
2022-12-26T12:40:00.643Z,4.8
2022-12-26T12:45:01.299Z,6.7
2022-12-26T12:50:01.002Z,6.1
2022-12-26T12:55:00.648Z,6.5
2022-12-26T13:00:00.667Z,4.4
2022-12-26T13:05:00.642Z,6.0
2022-12-26T13:10:00.620Z,6.6
2022-12-26T13:15:00.655Z,5.2
2022-12-26T13:20:03.274Z,8.2
2022-12-26T13:25:00.618Z,9.3
2022-12-26T13:30:00.681Z,8.4
2022-12-26T13:35:00.665Z,8.1
2022-12-26T13:40:00.669Z,9.2
2022-12-26T13:45:00.606Z,8.5
2022-12-26T13:50:01.373Z,6.6
2022-12-26T13:55:00.620Z,6.7
2022-12-26T14:00:00.682Z,9.2
2022-12-26T14:05:00.634Z,8.4
2022-12-26T14:10:00.640Z,8.2
2022-12-26T14:15:00.676Z,6.6
2022-12-26T14:20:00.659Z,7.3
2022-12-26T14:25:00.638Z,10.8
2022-12-26T14:30:00.660Z,5.6
2022-12-26T14:35:00.612Z,9.1
2022-12-26T14:40:00.692Z,8.8
2022-12-26T14:45:00.627Z,7.2
2022-12-26T14:50:00.643Z,6.4
2022-12-26T14:55:00.674Z,6.9
2022-12-26T15:00:04.766Z,6.8
2022-12-26T15:05:00.621Z,3.4
2022-12-26T15:10:00.632Z,6.8
2022-12-26T15:15:00.630Z,9.6
2022-12-26T15:20:00.655Z,7.9
2022-12-26T15:25:19.491Z,6.3
2022-12-26T15:30:00.688Z,4.8
2022-12-26T15:35:00.676Z,7.3
2022-12-26T15:40:00.664Z,7.0
2022-12-26T15:45:00.604Z,4.5
2022-12-26T15:50:00.638Z,5.3
2022-12-26T15:55:00.612Z,6.4
2022-12-26T16:00:00.639Z,8.3
2022-12-26T16:05:00.647Z,7.6
2022-12-26T16:10:00.784Z,4.9
2022-12-26T16:15:00.633Z,6.4
2022-12-26T16:20:00.715Z,6.7
2022-12-26T16:25:00.650Z,7.7
2022-12-26T16:30:06.754Z,11.8
2022-12-26T16:35:00.668Z,10.3
2022-12-26T16:40:00.636Z,17.8
2022-12-26T16:45:00.730Z,12.0
2022-12-26T16:50:00.614Z,12.4
2022-12-26T16:55:00.599Z,9.9
2022-12-26T17:00:00.644Z,8.6
2022-12-26T17:05:00.654Z,7.0
2022-12-26T17:10:00.659Z,6.9
2022-12-26T17:15:00.630Z,8.1
2022-12-26T17:20:00.637Z,6.6
2022-12-26T17:25:00.699Z,9.3
2022-12-26T17:30:00.724Z,11.1
2022-12-26T17:35:00.632Z,8.7
2022-12-26T17:40:03.694Z,9.3
2022-12-26T17:45:00.645Z,7.9
2022-12-26T17:50:00.644Z,10.5
2022-12-26T17:55:00.636Z,8.8
2022-12-26T18:00:00.669Z,8.5
2022-12-26T18:05:00.776Z,10.1
2022-12-26T18:10:00.749Z,12.0
2022-12-26T18:15:02.933Z,11.2
2022-12-26T18:20:00.659Z,8.7
2022-12-26T18:25:00.630Z,11.6
2022-12-26T18:30:00.660Z,10.6
2022-12-26T18:35:00.652Z,8.5
2022-12-26T18:40:00.652Z,7.9
2022-12-26T18:45:00.622Z,6.7
2022-12-26T18:50:00.629Z,5.5
2022-12-26T18:55:00.626Z,8.8
2022-12-26T19:00:00.685Z,7.5
2022-12-26T19:05:00.674Z,8.1
2022-12-26T19:10:00.650Z,8.4
2022-12-26T19:15:00.636Z,6.5
2022-12-26T19:20:00.725Z,3.3
2022-12-26T19:25:00.640Z,4.9
2022-12-26T19:30:00.641Z,6.2
2022-12-26T19:35:00.668Z,5.7
2022-12-26T19:40:00.662Z,5.1
2022-12-26T19:45:00.669Z,7.8
2022-12-26T19:50:00.673Z,6.7
2022-12-26T19:55:00.646Z,5.3
2022-12-26T20:00:00.668Z,4.8
2022-12-26T20:05:00.859Z,5.5
2022-12-26T20:10:00.656Z,3.7
2022-12-26T20:15:00.594Z,4.8
2022-12-26T20:20:00.707Z,6.7
2022-12-26T20:25:00.747Z,4.3
2022-12-26T20:30:00.668Z,5.2
2022-12-26T20:35:01.850Z,3.8
2022-12-26T20:40:00.602Z,2.1
2022-12-26T20:45:00.644Z,2.4
2022-12-26T20:50:00.689Z,3.8
2022-12-26T20:55:00.615Z,2.8
2022-12-26T21:00:00.688Z,4.0
2022-12-26T21:05:00.634Z,6.6
2022-12-26T21:10:00.641Z,11.3
2022-12-26T21:15:00.607Z,6.2
2022-12-26T21:20:00.674Z,10.7
2022-12-26T21:25:00.629Z,11.9
2022-12-26T21:30:00.884Z,5.4
2022-12-26T21:35:00.648Z,10.5
2022-12-26T21:40:00.651Z,10.6
2022-12-26T21:45:00.698Z,11.2
2022-12-26T21:50:00.651Z,8.2
2022-12-26T21:55:00.619Z,6.7
2022-12-26T22:00:00.676Z,7.9
2022-12-26T22:05:00.650Z,6.8
2022-12-26T22:10:00.654Z,7.0
2022-12-26T22:15:00.658Z,12.0
2022-12-26T22:20:00.654Z,9.9
2022-12-26T22:25:00.635Z,7.8
2022-12-26T22:30:00.677Z,5.7
2022-12-26T22:35:00.670Z,6.2
2022-12-26T22:40:00.635Z,8.4
2022-12-26T22:45:00.615Z,6.6
2022-12-26T22:50:02.101Z,5.6
2022-12-26T22:55:00.635Z,4.1
2022-12-26T23:00:10.621Z,4.7
2022-12-26T23:05:00.629Z,7.9
2022-12-26T23:10:00.756Z,6.8
2022-12-26T23:15:00.738Z,9.5
2022-12-26T23:20:00.613Z,7.5
2022-12-26T23:25:01.933Z,7.8
2022-12-26T23:30:06.227Z,7.1
2022-12-26T23:35:00.625Z,8.2
2022-12-26T23:40:00.658Z,7.7
2022-12-26T23:45:00.672Z,6.6
2022-12-26T23:50:00.829Z,8.3
2022-12-26T23:55:00.675Z,7.6
